createdAt,value
2017-11-24T00:00:21.419Z,0.00
2017-11-24T00:01:21.399Z,0.00
2017-11-24T00:02:21.380Z,0.00
2017-11-24T00:03:21.364Z,0.00
2017-11-24T00:04:21.350Z,0.00
2017-11-24T00:05:21.324Z,0.00
2017-11-24T00:06:21.309Z,0.00
2017-11-24T00:07:21.284Z,0.00
2017-11-24T00:08:21.264Z,0.00
2017-11-24T00:09:21.253Z,0.00
2017-11-24T00:10:21.230Z,0.00
2017-11-24T00:11:54.432Z,0.00
2017-11-24T00:12:21.201Z,0.00
2017-11-24T00:13:21.186Z,0.00
2017-11-24T00:14:21.177Z,0.00
2017-11-24T00:15:21.155Z,0.00
2017-11-24T00:16:21.132Z,0.00
2017-11-24T00:17:21.116Z,0.00
2017-11-24T00:18:21.099Z,0.00
2017-11-24T00:19:21.082Z,0.00
2017-11-24T00:20:21.061Z,0.00
2017-11-24T00:21:21.047Z,0.00
2017-11-24T00:22:21.022Z,0.00
2017-11-24T00:23:21.018Z,0.00
2017-11-24T00:24:20.984Z,0.00
2017-11-24T00:25:20.967Z,0.00
2017-11-24T00:26:20.953Z,0.00
2017-11-24T00:27:20.929Z,0.00
2017-11-24T00:28:20.912Z,0.00
2017-11-24T00:29:20.893Z,0.00
2017-11-24T00:30:20.882Z,0.00
2017-11-24T00:31:20.865Z,0.00
2017-11-24T00:32:20.839Z,0.00
2017-11-24T00:33:20.821Z,0.00
2017-11-24T00:34:20.801Z,0.00
2017-11-24T00:35:20.780Z,0.00
2017-11-24T00:38:05.481Z,0.00
2017-11-24T00:39:05.463Z,0.00
2017-11-24T00:40:05.446Z,0.00
2017-11-24T00:41:05.431Z,0.00
2017-11-24T00:42:05.412Z,0.00
2017-11-24T00:43:05.389Z,0.00
2017-11-24T00:44:05.371Z,0.00
2017-11-24T00:45:05.360Z,0.00
2017-11-24T00:46:05.337Z,0.00
2017-11-24T00:47:05.319Z,0.00
2017-11-24T00:48:05.299Z,0.00
2017-11-24T00:49:05.282Z,0.00
2017-11-24T00:50:05.271Z,0.00
2017-11-24T00:51:05.249Z,0.00
2017-11-24T00:52:05.233Z,0.00
2017-11-24T00:53:05.212Z,0.00
2017-11-24T00:54:05.192Z,0.00
2017-11-24T00:55:05.178Z,0.00
2017-11-24T00:56:05.160Z,0.00
2017-11-24T00:57:05.139Z,0.00
2017-11-24T00:58:05.121Z,0.00
2017-11-24T00:59:05.103Z,0.00
2017-11-24T01:00:05.092Z,0.00
2017-11-24T01:01:05.072Z,0.00
2017-11-24T01:02:05.052Z,0.00
2017-11-24T01:03:05.030Z,0.00
2017-11-24T01:04:05.013Z,0.00
2017-11-24T01:05:04.999Z,0.00
2017-11-24T01:06:04.973Z,0.00
2017-11-24T01:07:04.958Z,0.00
2017-11-24T01:08:04.941Z,0.00
2017-11-24T01:09:04.920Z,0.00
2017-11-24T01:10:04.896Z,0.00
2017-11-24T01:11:04.875Z,0.00
2017-11-24T01:12:04.860Z,0.00
2017-11-24T01:13:04.845Z,0.00
2017-11-24T01:14:04.825Z,0.00
2017-11-24T01:15:04.806Z,0.00
2017-11-24T01:16:04.797Z,0.00
2017-11-24T01:17:04.770Z,0.00
2017-11-24T01:18:04.767Z,0.00
2017-11-24T01:19:04.736Z,0.00
2017-11-24T01:20:04.716Z,0.00
2017-11-24T01:21:04.708Z,0.00
2017-11-24T01:22:04.682Z,0.00
2017-11-24T01:23:04.660Z,0.00
2017-11-24T01:24:04.645Z,0.00
2017-11-24T01:25:04.625Z,0.00
2017-11-24T01:26:04.605Z,0.00
2017-11-24T01:27:04.598Z,0.00
2017-11-24T01:28:04.577Z,0.00
2017-11-24T01:29:04.556Z,0.00
2017-11-24T01:30:04.539Z,0.00
2017-11-24T01:31:04.516Z,0.00
2017-11-24T01:32:04.503Z,0.00
2017-11-24T01:33:04.487Z,0.00
2017-11-24T01:34:04.467Z,0.00
2017-11-24T01:35:04.444Z,0.00
2017-11-24T01:36:04.425Z,0.00
2017-11-24T01:37:04.410Z,0.00
2017-11-24T01:38:04.393Z,0.00
2017-11-24T01:39:04.375Z,0.00
2017-11-24T01:40:04.355Z,0.00
2017-11-24T01:41:04.334Z,0.00
2017-11-24T01:42:04.315Z,0.00
2017-11-24T01:43:04.301Z,0.00
2017-11-24T01:44:04.296Z,0.00
2017-11-24T01:45:04.266Z,0.00
2017-11-24T01:46:04.246Z,0.00
2017-11-24T01:47:04.245Z,0.00
2017-11-24T01:48:04.215Z,0.00
2017-11-24T01:49:04.196Z,0.00
2017-11-24T01:50:04.176Z,0.00
2017-11-24T01:51:04.158Z,0.00
2017-11-24T01:52:04.142Z,0.00
2017-11-24T01:53:04.122Z,0.00
2017-11-24T01:54:04.100Z,0.00
2017-11-24T01:55:04.084Z,0.00
2017-11-24T01:56:04.063Z,0.00
2017-11-24T01:57:04.053Z,0.00
2017-11-24T01:58:04.142Z,0.00
2017-11-24T01:59:04.025Z,0.00
2017-11-24T02:00:03.994Z,0.00
2017-11-24T02:01:03.975Z,0.00
2017-11-24T02:02:03.956Z,0.00
2017-11-24T02:03:03.939Z,0.00
2017-11-24T02:04:03.922Z,0.00
2017-11-24T02:05:03.900Z,0.00
2017-11-24T02:06:03.884Z,0.00
2017-11-24T02:07:03.874Z,0.00
2017-11-24T02:08:03.849Z,0.00
2017-11-24T02:09:03.828Z,0.00
2017-11-24T02:10:03.813Z,0.00
2017-11-24T02:11:03.791Z,0.00
2017-11-24T02:12:03.774Z,0.00
2017-11-24T02:13:03.758Z,0.00
2017-11-24T02:14:03.743Z,0.00
2017-11-24T02:15:03.721Z,0.00
2017-11-24T02:16:03.703Z,0.00
2017-11-24T02:17:03.685Z,0.00
2017-11-24T02:18:03.677Z,0.00
2017-11-24T02:19:03.647Z,0.00
2017-11-24T02:20:03.636Z,0.00
2017-11-24T02:21:03.612Z,0.00
2017-11-24T02:22:03.593Z,0.00
2017-11-24T02:23:03.582Z,0.00
2017-11-24T02:24:03.561Z,0.00
2017-11-24T02:25:03.547Z,0.00
2017-11-24T02:26:03.523Z,0.00
2017-11-24T02:27:03.507Z,0.00
2017-11-24T02:28:03.489Z,0.00
2017-11-24T02:29:03.470Z,0.00
2017-11-24T02:30:03.456Z,0.00
2017-11-24T02:31:03.436Z,0.00
2017-11-24T02:32:03.426Z,0.00
2017-11-24T02:33:03.408Z,0.00
2017-11-24T02:34:03.381Z,0.00
2017-11-24T02:35:03.366Z,0.00
2017-11-24T02:36:03.344Z,0.00
2017-11-24T02:37:03.348Z,0.00
2017-11-24T02:38:03.309Z,0.00
2017-11-24T02:39:03.294Z,0.00
2017-11-24T02:40:03.277Z,0.00
2017-11-24T02:41:03.267Z,0.00
2017-11-24T02:42:03.248Z,0.00
2017-11-24T02:43:03.221Z,0.00
2017-11-24T02:44:03.206Z,0.00
2017-11-24T02:45:03.194Z,0.00
2017-11-24T02:46:03.168Z,0.00
2017-11-24T02:47:03.164Z,0.00
2017-11-24T02:48:03.134Z,0.00
2017-11-24T02:49:03.129Z,0.00
2017-11-24T02:50:03.094Z,0.00
2017-11-24T02:51:03.084Z,0.00
2017-11-24T02:52:03.065Z,0.00
2017-11-24T02:53:03.048Z,0.00
2017-11-24T02:54:03.025Z,0.00
2017-11-24T02:55:03.010Z,0.00
2017-11-24T02:56:02.996Z,0.00
2017-11-24T02:57:02.981Z,0.00
2017-11-24T02:58:02.956Z,0.00
2017-11-24T02:59:02.939Z,0.00
2017-11-24T03:00:02.926Z,0.00
2017-11-24T03:01:02.905Z,0.00
2017-11-24T03:02:02.885Z,0.00
2017-11-24T03:03:02.885Z,0.00
2017-11-24T03:04:02.854Z,0.00
2017-11-24T03:05:02.836Z,0.00
2017-11-24T03:06:02.815Z,0.00
2017-11-24T03:07:02.796Z,0.00
2017-11-24T03:08:02.786Z,0.00
2017-11-24T03:09:02.759Z,0.00
2017-11-24T03:10:02.743Z,0.00
2017-11-24T03:11:02.724Z,0.00
2017-11-24T03:12:02.710Z,0.00
2017-11-24T03:13:02.689Z,0.00
2017-11-24T03:14:02.675Z,0.00
2017-11-24T03:15:02.665Z,0.00
2017-11-24T03:16:02.639Z,0.00
2017-11-24T03:17:02.622Z,0.00
2017-11-24T03:18:02.602Z,0.00
2017-11-24T03:19:02.587Z,0.00
2017-11-24T03:20:02.565Z,0.00
2017-11-24T03:21:02.553Z,0.00
2017-11-24T03:22:02.530Z,0.00
2017-11-24T03:23:02.515Z,0.00
2017-11-24T03:24:02.496Z,0.00
2017-11-24T03:25:02.486Z,0.00
2017-11-24T03:26:02.466Z,0.00
2017-11-24T03:27:02.463Z,0.00
2017-11-24T03:28:02.423Z,0.00
2017-11-24T03:29:02.416Z,0.00
2017-11-24T03:30:02.397Z,0.00
2017-11-24T03:31:02.380Z,0.00
2017-11-24T03:32:02.357Z,0.00
2017-11-24T03:33:02.346Z,0.00
2017-11-24T03:34:02.319Z,0.00
2017-11-24T03:35:02.301Z,0.00
2017-11-24T03:36:02.288Z,0.00
2017-11-24T03:37:02.269Z,0.00
2017-11-24T03:38:02.247Z,0.00
2017-11-24T03:39:02.252Z,0.00
2017-11-24T03:40:02.215Z,0.00
2017-11-24T03:41:02.199Z,0.00
2017-11-24T03:42:02.175Z,0.00
2017-11-24T03:43:02.156Z,0.00
2017-11-24T03:44:02.139Z,0.00
2017-11-24T03:45:02.133Z,0.00
2017-11-24T03:46:02.103Z,0.00
2017-11-24T03:47:02.086Z,0.00
2017-11-24T03:48:02.065Z,0.00
2017-11-24T03:49:02.056Z,0.00
2017-11-24T03:50:02.036Z,0.00
2017-11-24T03:51:02.016Z,0.00
2017-11-24T03:52:01.997Z,0.00
2017-11-24T03:53:01.975Z,0.00
2017-11-24T03:54:01.968Z,0.00
2017-11-24T03:55:01.952Z,0.00
2017-11-24T03:56:01.926Z,0.00
2017-11-24T03:57:01.911Z,0.00
2017-11-24T03:58:01.887Z,0.00
2017-11-24T03:59:01.869Z,0.00
2017-11-24T04:00:01.856Z,0.00
2017-11-24T04:01:01.834Z,0.00
2017-11-24T04:02:01.817Z,0.00
2017-11-24T04:03:01.800Z,0.00
2017-11-24T04:04:01.785Z,0.00
2017-11-24T04:05:01.768Z,0.00
2017-11-24T04:06:01.742Z,0.00
2017-11-24T04:07:01.736Z,0.00
2017-11-24T04:08:01.722Z,0.00
2017-11-24T04:09:01.690Z,0.00
2017-11-24T04:10:01.682Z,0.00
2017-11-24T04:11:01.655Z,0.00
2017-11-24T04:12:01.644Z,0.00
2017-11-24T04:13:01.628Z,0.00
2017-11-24T04:14:01.607Z,0.00
2017-11-24T04:15:01.585Z,0.00
2017-11-24T04:16:01.565Z,0.00
2017-11-24T04:17:01.554Z,0.00
2017-11-24T04:18:01.532Z,0.00
2017-11-24T04:19:01.514Z,0.00
2017-11-24T04:20:01.495Z,0.00
2017-11-24T04:21:01.483Z,0.00
2017-11-24T04:22:01.466Z,0.00
2017-11-24T04:23:01.456Z,0.00
2017-11-24T04:24:01.423Z,0.00
2017-11-24T04:25:01.417Z,0.00
2017-11-24T04:26:01.389Z,0.00
2017-11-24T04:27:01.378Z,0.00
2017-11-24T04:28:01.360Z,0.00
2017-11-24T04:29:01.353Z,0.00
2017-11-24T04:30:01.321Z,0.00
2017-11-24T04:31:01.302Z,0.00
2017-11-24T04:32:01.335Z,0.00
2017-11-24T04:33:01.267Z,0.00
2017-11-24T04:34:01.322Z,0.00
2017-11-24T04:35:01.226Z,0.00
2017-11-24T04:36:01.211Z,0.00
2017-11-24T04:37:01.201Z,0.00
2017-11-24T04:38:01.182Z,0.00
2017-11-24T04:39:01.155Z,0.00
2017-11-24T04:40:01.143Z,0.00
2017-11-24T04:41:01.121Z,0.00
2017-11-24T04:42:01.257Z,0.00
2017-11-24T04:43:01.092Z,0.00
2017-11-24T04:44:01.068Z,0.00
2017-11-24T04:45:01.048Z,0.00
2017-11-24T04:46:01.059Z,0.00
2017-11-24T04:47:01.009Z,0.00
2017-11-24T04:48:01.008Z,0.00
2017-11-24T04:49:00.979Z,0.00
2017-11-24T04:50:00.960Z,0.00
2017-11-24T04:51:00.938Z,0.00
2017-11-24T04:52:00.922Z,0.00
2017-11-24T04:53:00.924Z,0.00
2017-11-24T04:54:00.882Z,0.00
2017-11-24T04:55:00.878Z,0.00
2017-11-24T04:56:00.847Z,0.00
2017-11-24T04:57:00.828Z,0.00
2017-11-24T04:58:00.864Z,0.00
2017-11-24T04:59:00.806Z,0.00
2017-11-24T05:00:00.878Z,0.00
2017-11-24T05:01:00.757Z,0.00
2017-11-24T05:02:00.736Z,0.00
2017-11-24T05:03:00.726Z,0.00
2017-11-24T05:04:00.852Z,0.00
2017-11-24T05:05:00.681Z,0.00
2017-11-24T05:06:00.738Z,0.00
2017-11-24T05:07:00.646Z,0.00
2017-11-24T05:08:00.637Z,0.00
2017-11-24T05:09:00.608Z,0.00
2017-11-24T05:10:00.693Z,0.00
2017-11-24T05:11:00.575Z,0.00
2017-11-24T05:12:00.555Z,0.00
2017-11-24T05:13:00.534Z,0.00
2017-11-24T05:14:00.523Z,0.00
2017-11-24T05:15:00.498Z,0.00
2017-11-24T05:16:00.485Z,0.00
2017-11-24T05:17:00.465Z,0.00
2017-11-24T05:18:00.444Z,0.00
2017-11-24T05:19:00.432Z,0.00
2017-11-24T05:20:00.414Z,0.00
2017-11-24T05:21:00.401Z,0.00
2017-11-24T05:22:00.374Z,0.00
2017-11-24T05:23:00.356Z,0.00
2017-11-24T05:24:00.335Z,0.00
2017-11-24T05:25:00.319Z,0.00
2017-11-24T05:26:00.301Z,0.00
2017-11-24T05:27:00.285Z,0.00
2017-11-24T05:28:00.261Z,0.00
2017-11-24T05:29:00.246Z,0.00
2017-11-24T05:30:00.225Z,0.00
2017-11-24T05:31:00.217Z,0.00
2017-11-24T05:32:00.218Z,0.00
2017-11-24T05:33:00.175Z,0.00
2017-11-24T05:34:00.153Z,0.00
2017-11-24T05:35:00.135Z,0.00
2017-11-24T05:36:00.116Z,0.00
2017-11-24T05:37:00.102Z,0.00
2017-11-24T05:38:00.079Z,0.00
2017-11-24T05:39:00.067Z,0.00
2017-11-24T05:40:00.062Z,0.00
2017-11-24T05:41:00.038Z,0.00
2017-11-24T05:42:00.017Z,0.00
2017-11-24T05:43:00.007Z,0.00
2017-11-24T05:43:59.975Z,0.00
2017-11-24T05:44:59.959Z,0.00
2017-11-24T05:45:59.936Z,0.00
2017-11-24T05:46:59.919Z,0.00
2017-11-24T05:47:59.901Z,0.00
2017-11-24T05:48:59.884Z,0.00
2017-11-24T05:49:59.866Z,0.00
2017-11-24T05:50:59.845Z,0.00
2017-11-24T05:51:59.837Z,0.00
2017-11-24T05:52:59.817Z,0.00
2017-11-24T05:53:59.802Z,0.00
2017-11-24T05:54:59.776Z,0.00
2017-11-24T05:55:59.766Z,0.00
2017-11-24T05:56:59.744Z,0.00
2017-11-24T05:57:59.730Z,0.00
2017-11-24T05:58:59.701Z,0.00
2017-11-24T05:59:59.683Z,0.00
2017-11-24T06:00:59.667Z,0.00
2017-11-24T06:01:59.656Z,0.00
2017-11-24T06:02:59.637Z,0.00
2017-11-24T06:03:59.614Z,0.00
2017-11-24T06:04:59.596Z,0.00
2017-11-24T06:05:59.593Z,0.00
2017-11-24T06:06:59.565Z,0.00
2017-11-24T06:07:59.643Z,0.00
2017-11-24T06:08:59.526Z,0.00
2017-11-24T06:09:59.514Z,0.00
2017-11-24T06:10:59.487Z,0.00
2017-11-24T06:11:59.575Z,0.00
2017-11-24T06:12:59.454Z,0.00
2017-11-24T06:13:59.481Z,0.00
2017-11-24T06:14:59.416Z,0.00
2017-11-24T06:15:59.395Z,0.00
2017-11-24T06:16:59.387Z,0.00
2017-11-24T06:17:59.414Z,0.00
2017-11-24T06:18:59.344Z,0.00
2017-11-24T06:19:59.336Z,0.00
2017-11-24T06:20:59.303Z,0.00
2017-11-24T06:21:59.286Z,0.00
2017-11-24T06:22:59.264Z,0.00
2017-11-24T06:23:59.306Z,0.00
2017-11-24T06:24:59.229Z,0.00
2017-11-24T06:25:59.316Z,0.00
2017-11-24T06:26:59.197Z,0.00
2017-11-24T06:27:59.226Z,0.00
2017-11-24T06:28:59.159Z,0.00
2017-11-24T06:29:59.144Z,0.00
2017-11-24T06:30:59.119Z,0.00
2017-11-24T06:31:59.102Z,0.00
2017-11-24T06:32:59.086Z,0.00
2017-11-24T06:33:59.120Z,0.00
2017-11-24T06:34:59.067Z,0.00
2017-11-24T06:35:59.041Z,0.00
2017-11-24T06:36:59.020Z,0.00
2017-11-24T06:37:58.992Z,0.00
2017-11-24T06:38:58.976Z,0.00
2017-11-24T06:39:58.954Z,0.00
2017-11-24T06:40:58.936Z,0.00
2017-11-24T06:41:58.969Z,0.00
2017-11-24T06:42:58.899Z,0.00
2017-11-24T06:43:58.930Z,0.00
2017-11-24T06:44:58.864Z,0.00
2017-11-24T06:45:58.895Z,0.00
2017-11-24T06:46:58.826Z,0.00
2017-11-24T06:47:58.811Z,0.00
2017-11-24T06:48:58.787Z,0.00
2017-11-24T06:49:58.782Z,0.00
2017-11-24T06:50:58.759Z,0.00
2017-11-24T06:51:58.763Z,0.00
2017-11-24T06:52:58.717Z,0.00
2017-11-24T06:53:58.701Z,0.00
2017-11-24T06:54:58.677Z,0.00
2017-11-24T06:55:58.664Z,0.00
2017-11-24T06:56:58.643Z,0.00
2017-11-24T06:57:58.621Z,0.00
2017-11-24T06:58:58.609Z,0.00
2017-11-24T06:59:58.586Z,0.00
2017-11-24T07:00:58.567Z,0.00
2017-11-24T07:01:58.552Z,0.00
2017-11-24T07:02:58.534Z,0.00
2017-11-24T07:03:58.518Z,0.00
2017-11-24T07:04:58.493Z,0.00
2017-11-24T07:05:58.471Z,0.00
2017-11-24T07:06:58.457Z,0.00
2017-11-24T07:07:58.436Z,0.00
2017-11-24T07:08:58.418Z,0.00
2017-11-24T07:09:58.399Z,0.00
2017-11-24T07:10:58.384Z,0.00
2017-11-24T07:11:58.362Z,0.00
2017-11-24T07:12:58.342Z,0.00
2017-11-24T07:13:58.327Z,0.00
2017-11-24T07:14:58.306Z,0.00
2017-11-24T07:15:58.292Z,0.00
2017-11-24T07:16:58.272Z,0.00
2017-11-24T07:17:58.260Z,0.00
2017-11-24T07:18:58.235Z,0.00
2017-11-24T07:19:58.218Z,0.00
2017-11-24T07:20:58.196Z,0.00
2017-11-24T07:21:58.177Z,0.00
2017-11-24T07:22:58.155Z,0.00
2017-11-24T07:23:58.144Z,0.00
2017-11-24T07:24:58.137Z,0.00
2017-11-24T07:25:58.109Z,5.63
2017-11-24T07:26:58.085Z,5.63
2017-11-24T07:27:58.065Z,5.63
2017-11-24T07:28:58.045Z,5.63
2017-11-24T07:29:58.025Z,5.63
2017-11-24T07:30:58.007Z,5.63
2017-11-24T07:31:57.986Z,5.63
2017-11-24T07:32:57.976Z,5.63
2017-11-24T07:33:57.952Z,5.63
2017-11-24T07:34:57.934Z,5.63
2017-11-24T07:35:57.914Z,5.63
2017-11-24T07:36:57.903Z,5.63
2017-11-24T07:37:57.875Z,5.63
2017-11-24T07:38:57.865Z,5.63
2017-11-24T07:39:57.846Z,5.63
2017-11-24T07:40:57.823Z,5.63
2017-11-24T07:41:57.800Z,5.63
2017-11-24T07:42:57.784Z,5.63
2017-11-24T07:43:57.764Z,5.63
2017-11-24T07:44:57.755Z,5.63
2017-11-24T07:45:57.779Z,5.63
2017-11-24T07:46:57.709Z,5.63
2017-11-24T07:47:57.693Z,5.63
2017-11-24T07:48:57.678Z,5.63
2017-11-24T07:49:57.656Z,5.63
2017-11-24T07:50:57.638Z,5.63
2017-11-24T07:51:57.676Z,5.63
2017-11-24T07:52:57.604Z,5.63
2017-11-24T07:53:57.584Z,5.63
2017-11-24T07:54:57.566Z,5.63
2017-11-24T07:55:57.547Z,5.63
2017-11-24T07:56:57.526Z,5.63
2017-11-24T07:57:57.519Z,5.63
2017-11-24T07:58:57.492Z,5.63
2017-11-24T07:59:57.475Z,5.63
2017-11-24T08:00:57.457Z,5.63
2017-11-24T08:01:57.485Z,5.63
2017-11-24T08:02:57.414Z,5.63
2017-11-24T08:03:57.395Z,5.63
2017-11-24T08:04:57.379Z,5.63
2017-11-24T08:05:57.357Z,5.63
2017-11-24T08:06:57.346Z,5.63
2017-11-24T08:07:57.329Z,5.63
2017-11-24T08:08:57.302Z,5.63
2017-11-24T08:09:57.284Z,5.63
2017-11-24T08:10:57.264Z,5.63
2017-11-24T08:11:57.295Z,5.63
2017-11-24T08:12:57.234Z,0.00
2017-11-24T08:13:57.214Z,0.00
2017-11-24T08:14:57.195Z,0.00
2017-11-24T08:15:57.174Z,0.00
2017-11-24T08:16:57.160Z,0.00
2017-11-24T08:17:57.138Z,5.63
2017-11-24T08:18:57.119Z,5.63
2017-11-24T08:19:57.111Z,5.63
2017-11-24T08:20:57.086Z,5.63
2017-11-24T08:21:57.065Z,0.00
2017-11-24T08:22:57.045Z,0.00
2017-11-24T08:23:57.035Z,0.00
2017-11-24T08:24:57.013Z,5.63
2017-11-24T08:25:56.996Z,5.63
2017-11-24T08:26:56.973Z,5.63
2017-11-24T08:27:56.966Z,5.63
2017-11-24T08:28:56.938Z,5.63
2017-11-24T08:29:56.923Z,5.63
2017-11-24T08:30:56.902Z,5.63
2017-11-24T08:31:56.879Z,11.25
2017-11-24T08:32:56.874Z,11.25
2017-11-24T08:33:56.845Z,11.25
2017-11-24T08:34:56.827Z,16.88
2017-11-24T08:35:56.818Z,16.88
2017-11-24T08:36:56.794Z,16.88
2017-11-24T08:37:56.771Z,16.88
2017-11-24T08:38:56.757Z,11.25
2017-11-24T08:39:56.735Z,11.25
2017-11-24T08:40:56.731Z,11.25
2017-11-24T08:41:56.709Z,5.63
2017-11-24T08:42:56.687Z,5.63
2017-11-24T08:43:56.663Z,5.63
2017-11-24T08:44:56.651Z,5.63
2017-11-24T08:45:56.625Z,5.63
2017-11-24T08:46:56.609Z,11.25
2017-11-24T08:47:56.591Z,11.25
2017-11-24T08:48:56.578Z,11.25
2017-11-24T08:49:56.555Z,11.25
2017-11-24T08:50:56.537Z,11.25
2017-11-24T08:51:56.520Z,11.25
2017-11-24T08:52:56.511Z,16.88
2017-11-24T08:53:56.481Z,22.50
2017-11-24T08:54:56.464Z,28.13
2017-11-24T08:55:56.444Z,33.75
2017-11-24T08:56:56.428Z,45.00
2017-11-24T08:57:56.409Z,50.63
2017-11-24T08:58:56.394Z,56.25
2017-11-24T08:59:56.375Z,56.25
2017-11-24T09:00:56.362Z,61.88
2017-11-24T09:01:56.344Z,56.25
2017-11-24T09:02:56.318Z,50.63
2017-11-24T09:03:56.305Z,45.00
2017-11-24T09:04:56.286Z,45.00
2017-11-24T09:05:56.267Z,50.63
2017-11-24T09:06:56.253Z,56.25
2017-11-24T09:07:56.230Z,61.88
2017-11-24T09:08:56.213Z,61.88
2017-11-24T09:09:56.195Z,56.25
2017-11-24T09:10:56.184Z,45.00
2017-11-24T09:11:56.159Z,45.00
2017-11-24T09:12:56.143Z,45.00
2017-11-24T09:13:56.125Z,39.38
2017-11-24T09:14:56.104Z,33.75
2017-11-24T09:15:56.095Z,28.13
2017-11-24T09:16:56.075Z,28.13
2017-11-24T09:17:56.054Z,22.50
2017-11-24T09:18:56.034Z,22.50
2017-11-24T09:19:56.015Z,22.50
2017-11-24T09:20:56.003Z,22.50
2017-11-24T09:21:55.989Z,28.13
2017-11-24T09:22:55.977Z,28.13
2017-11-24T09:23:55.943Z,28.13
2017-11-24T09:24:55.936Z,33.75
2017-11-24T09:25:55.914Z,33.75
2017-11-24T09:26:55.890Z,33.75
2017-11-24T09:27:55.874Z,33.75
2017-11-24T09:28:55.855Z,33.75
2017-11-24T09:29:55.844Z,33.75
2017-11-24T09:30:55.818Z,33.75
2017-11-24T09:31:55.804Z,28.13
2017-11-24T09:32:55.785Z,28.13
2017-11-24T09:33:55.772Z,28.13
2017-11-24T09:34:55.752Z,28.13
2017-11-24T09:35:55.734Z,28.13
2017-11-24T09:36:55.718Z,22.50
2017-11-24T09:37:55.703Z,22.50
2017-11-24T09:38:55.679Z,22.50
2017-11-24T09:39:55.661Z,28.13
2017-11-24T09:40:55.656Z,28.13
2017-11-24T09:41:55.624Z,28.13
2017-11-24T09:42:55.615Z,28.13
2017-11-24T09:43:55.597Z,28.13
2017-11-24T09:44:55.573Z,22.50
2017-11-24T09:45:55.559Z,22.50
2017-11-24T09:46:55.540Z,22.50
2017-11-24T09:47:55.525Z,22.50
2017-11-24T09:48:55.505Z,22.50
2017-11-24T09:49:55.484Z,22.50
2017-11-24T09:50:55.473Z,22.50
2017-11-24T09:51:55.458Z,16.88
2017-11-24T09:52:55.434Z,16.88
2017-11-24T09:53:55.409Z,16.88
2017-11-24T09:54:55.394Z,22.50
2017-11-24T09:55:55.376Z,22.50
2017-11-24T09:56:55.361Z,22.50
2017-11-24T09:57:55.341Z,22.50
2017-11-24T09:58:55.324Z,22.50
2017-11-24T09:59:55.309Z,22.50
2017-11-24T10:00:55.297Z,22.50
2017-11-24T10:01:55.278Z,22.50
2017-11-24T10:02:55.270Z,22.50
2017-11-24T10:03:55.239Z,28.13
2017-11-24T10:04:55.217Z,28.13
2017-11-24T10:05:55.194Z,33.75
2017-11-24T10:06:55.186Z,39.38
2017-11-24T10:07:55.165Z,45.00
2017-11-24T10:08:55.150Z,45.00
2017-11-24T10:09:55.148Z,39.38
2017-11-24T10:10:55.113Z,33.75
2017-11-24T10:11:55.108Z,33.75
2017-11-24T10:12:55.075Z,28.13
2017-11-24T10:13:55.059Z,28.13
2017-11-24T10:14:55.052Z,28.13
2017-11-24T10:15:55.028Z,28.13
2017-11-24T10:16:54.998Z,28.13
2017-11-24T10:17:54.988Z,22.50
2017-11-24T10:18:54.978Z,22.50
2017-11-24T10:19:54.959Z,22.50
2017-11-24T10:20:54.935Z,22.50
2017-11-24T10:21:54.910Z,28.13
2017-11-24T10:22:54.896Z,28.13
2017-11-24T10:23:54.873Z,28.13
2017-11-24T10:24:54.864Z,33.75
2017-11-24T10:25:54.838Z,33.75
2017-11-24T10:26:54.829Z,33.75
2017-11-24T10:27:54.813Z,33.75
2017-11-24T10:28:54.784Z,39.38
2017-11-24T10:29:54.774Z,33.75
2017-11-24T10:30:54.754Z,33.75
2017-11-24T10:31:54.734Z,33.75
2017-11-24T10:32:54.724Z,33.75
2017-11-24T10:33:54.707Z,33.75
2017-11-24T10:34:54.686Z,33.75
2017-11-24T10:35:54.668Z,33.75
2017-11-24T10:36:54.643Z,28.13
2017-11-24T10:37:54.627Z,28.13
2017-11-24T10:38:54.617Z,22.50
2017-11-24T10:39:54.592Z,28.13
2017-11-24T10:40:54.576Z,22.50
2017-11-24T10:41:54.560Z,22.50
2017-11-24T10:42:54.546Z,22.50
2017-11-24T10:43:54.530Z,22.50
2017-11-24T10:44:54.505Z,22.50
2017-11-24T10:45:54.483Z,22.50
2017-11-24T10:46:54.465Z,22.50
2017-11-24T10:47:54.451Z,28.13
2017-11-24T10:48:54.427Z,33.75
2017-11-24T10:49:54.414Z,33.75
2017-11-24T10:50:54.394Z,39.38
2017-11-24T10:51:54.377Z,39.38
2017-11-24T10:52:54.360Z,39.38
2017-11-24T10:53:54.341Z,39.38
2017-11-24T10:54:54.320Z,39.38
2017-11-24T10:55:54.303Z,39.38
2017-11-24T10:56:54.293Z,45.00
2017-11-24T10:57:54.277Z,45.00
2017-11-24T10:58:54.255Z,39.38
2017-11-24T10:59:54.238Z,39.38
2017-11-24T11:00:54.217Z,33.75
2017-11-24T11:01:54.195Z,33.75
2017-11-24T11:02:54.183Z,33.75
2017-11-24T11:03:54.165Z,33.75
2017-11-24T11:04:54.155Z,39.38
2017-11-24T11:05:54.125Z,45.00
2017-11-24T11:06:54.111Z,56.25
2017-11-24T11:07:54.098Z,67.50
2017-11-24T11:08:54.083Z,61.88
2017-11-24T11:09:54.055Z,56.25
2017-11-24T11:10:54.041Z,50.63
2017-11-24T11:11:54.019Z,45.00
2017-11-24T11:12:54.006Z,61.88
2017-11-24T11:13:53.988Z,84.38
2017-11-24T11:14:53.972Z,95.63
2017-11-24T11:15:53.956Z,101.25
2017-11-24T11:16:53.933Z,90.00
2017-11-24T11:17:53.914Z,78.75
2017-11-24T11:18:53.895Z,78.75
2017-11-24T11:19:53.889Z,73.13
2017-11-24T11:20:53.856Z,78.75
2017-11-24T11:21:53.843Z,78.75
2017-11-24T11:22:53.825Z,73.13
2017-11-24T11:23:53.812Z,61.88
2017-11-24T11:24:53.788Z,56.25
2017-11-24T11:25:53.771Z,50.63
2017-11-24T11:26:53.754Z,45.00
2017-11-24T11:27:53.734Z,45.00
2017-11-24T11:28:53.724Z,39.38
2017-11-24T11:29:53.700Z,39.38
2017-11-24T11:30:53.684Z,33.75
2017-11-24T11:31:53.673Z,28.13
2017-11-24T11:32:53.654Z,22.50
2017-11-24T11:33:53.629Z,22.50
2017-11-24T11:34:53.612Z,22.50
2017-11-24T11:35:53.596Z,22.50
2017-11-24T11:36:53.584Z,16.88
2017-11-24T11:37:53.558Z,16.88
2017-11-24T11:38:53.547Z,16.88
2017-11-24T11:39:53.524Z,16.88
2017-11-24T11:40:53.501Z,16.88
2017-11-24T11:41:53.484Z,16.88
2017-11-24T11:42:53.472Z,16.88
2017-11-24T11:43:53.450Z,22.50
2017-11-24T11:44:53.432Z,22.50
2017-11-24T11:45:53.418Z,22.50
2017-11-24T11:46:53.394Z,22.50
2017-11-24T11:47:53.377Z,28.13
2017-11-24T11:48:53.363Z,28.13
2017-11-24T11:49:53.347Z,22.50
2017-11-24T11:50:53.328Z,22.50
2017-11-24T11:51:53.306Z,28.13
2017-11-24T11:52:53.291Z,33.75
2017-11-24T11:53:53.275Z,33.75
2017-11-24T11:54:53.254Z,33.75
2017-11-24T11:55:53.234Z,33.75
2017-11-24T11:56:53.225Z,33.75
2017-11-24T11:57:53.203Z,33.75
2017-11-24T11:58:53.183Z,28.13
2017-11-24T11:59:53.171Z,33.75
2017-11-24T12:00:53.170Z,33.75
2017-11-24T12:01:53.128Z,33.75
2017-11-24T12:02:53.110Z,33.75
2017-11-24T12:03:53.106Z,33.75
2017-11-24T12:04:53.075Z,33.75
2017-11-24T12:05:53.054Z,39.38
2017-11-24T12:06:53.039Z,39.38
2017-11-24T12:07:53.019Z,33.75
2017-11-24T12:08:53.046Z,33.75
2017-11-24T12:09:52.989Z,33.75
2017-11-24T12:10:52.966Z,28.13
2017-11-24T12:11:52.953Z,28.13
2017-11-24T12:12:52.936Z,22.50
2017-11-24T12:13:52.912Z,22.50
2017-11-24T12:14:52.896Z,28.13
2017-11-24T12:15:52.875Z,28.13
2017-11-24T12:16:52.864Z,28.13
2017-11-24T12:17:52.845Z,22.50
2017-11-24T12:18:52.828Z,22.50
2017-11-24T12:19:52.805Z,16.88
2017-11-24T12:20:52.788Z,16.88
2017-11-24T12:21:52.781Z,11.25
2017-11-24T12:22:52.755Z,11.25
2017-11-24T12:23:52.779Z,11.25
2017-11-24T12:24:52.718Z,11.25
2017-11-24T12:25:52.702Z,11.25
2017-11-24T12:26:52.674Z,11.25
2017-11-24T12:27:52.664Z,16.88
2017-11-24T12:28:52.654Z,16.88
2017-11-24T12:29:52.627Z,16.88
2017-11-24T12:30:52.618Z,16.88
2017-11-24T12:31:52.592Z,16.88
2017-11-24T12:32:52.588Z,16.88
2017-11-24T12:33:52.559Z,16.88
2017-11-24T12:34:52.551Z,16.88
2017-11-24T12:35:52.526Z,16.88
2017-11-24T12:36:52.506Z,16.88
2017-11-24T12:37:52.494Z,16.88
2017-11-24T12:38:52.465Z,16.88
2017-11-24T12:39:52.441Z,16.88
2017-11-24T12:40:52.435Z,16.88
2017-11-24T12:41:52.412Z,11.25
2017-11-24T12:42:52.393Z,11.25
2017-11-24T12:43:52.379Z,11.25
2017-11-24T12:44:52.355Z,11.25
2017-11-24T12:45:52.335Z,5.63
2017-11-24T12:46:52.315Z,5.63
2017-11-24T12:47:52.301Z,5.63
2017-11-24T12:48:52.280Z,5.63
2017-11-24T12:49:52.262Z,5.63
2017-11-24T12:50:52.244Z,5.63
2017-11-24T12:51:52.234Z,11.25
2017-11-24T12:52:52.216Z,11.25
2017-11-24T12:53:52.199Z,11.25
2017-11-24T12:54:52.177Z,11.25
2017-11-24T12:55:52.154Z,16.88
2017-11-24T12:56:52.134Z,16.88
2017-11-24T12:57:52.127Z,16.88
2017-11-24T12:58:52.111Z,16.88
2017-11-24T12:59:52.084Z,16.88
2017-11-24T13:00:52.079Z,11.25
2017-11-24T13:01:52.048Z,11.25
2017-11-24T13:02:52.082Z,16.88
2017-11-24T13:03:52.009Z,16.88
2017-11-24T13:04:52.146Z,16.88
2017-11-24T13:05:51.969Z,22.50
2017-11-24T13:06:51.958Z,22.50
2017-11-24T13:07:51.939Z,22.50
2017-11-24T13:08:51.964Z,28.13
2017-11-24T13:09:51.901Z,28.13
2017-11-24T13:10:51.875Z,28.13